Time;durP1;ratioP1;P1;durP2;ratioP2;P2;SDS_P1;SDS_P2;PMS_P1;PMS_P2;Temp;Humidity;BMP_temperature;BMP_pressure;BME280_temperature;BME280_humidity;BME280_pressure;Samples;Min_cycle;Max_cycle;Signal;HPM_P1;HPM_P2
2021/01/05 00:00:06;;;;;;;;;;;8.40;69.60;;;;;;2582775;23;20010;-70
2021/01/05 00:01:07;;;;;;;;;;;8.40;67.60;;;;;;2583243;23;19927;-72
2021/01/05 00:02:09;;;;;;;;;;;8.50;67.50;;;;;;2582957;23;19919;-71
2021/01/05 00:03:10;;;;;;;;;;;8.40;66.90;;;;;;2583109;23;20102;-71
2021/01/05 00:04:11;;;;;;;;;;;8.30;67.50;;;;;;2582883;23;20256;-70
2021/01/05 00:05:14;;;;;;;;;;;8.30;67.30;;;;;;2582850;23;19919;-70
2021/01/05 00:06:15;;;;;;;;;;;8.10;67.50;;;;;;2569888;23;20374;-70
2021/01/05 00:07:17;;;;;;;;;;;8.20;68.50;;;;;;2570044;23;19972;-71
2021/01/05 00:08:18;;;;;;;;;;;8.20;69.70;;;;;;2582744;23;20249;-71
2021/01/05 00:09:20;;;;;;;;;;;8.30;68.40;;;;;;2582987;23;20078;-71
2021/01/05 00:10:22;;;;;;;;;;;8.30;68.20;;;;;;2583192;23;19920;-71
2021/01/05 00:11:24;;;;;;;;;;;8.30;67.40;;;;;;2583101;23;19942;-70
2021/01/05 00:12:26;;;;;;;;;;;8.30;66.60;;;;;;2583218;23;19920;-70
2021/01/05 00:13:28;;;;;;;;;;;8.20;68.90;;;;;;2582949;23;19971;-71
2021/01/05 00:14:29;;;;;;;;;;;8.40;68.40;;;;;;2583094;23;19926;-71
2021/01/05 00:15:31;;;;;;;;;;;8.50;69.10;;;;;;2583371;23;20231;-71
2021/01/05 00:16:32;;;;;;;;;;;8.60;68.80;;;;;;2583648;23;19919;-72
2021/01/05 00:17:34;;;;;;;;;;;8.80;68.50;;;;;;2584013;23;19920;-70
2021/01/05 00:18:35;;;;;;;;;;;8.70;66.70;;;;;;2584400;23;19919;-71
2021/01/05 00:19:37;;;;;;;;;;;8.70;65.70;;;;;;2583980;23;20245;-71
2021/01/05 00:20:39;;;;;;;;;;;8.70;67.20;;;;;;2583793;23;19931;-71
2021/01/05 00:21:47;;;;;;;;;;;8.80;65.90;;;;;;2583873;23;19923;-73
2021/01/05 00:22:49;;;;;;;;;;;8.90;67.40;;;;;;2583571;23;19920;-72
2021/01/05 00:23:50;;;;;;;;;;;8.90;65.40;;;;;;2583190;23;20256;-72
2021/01/05 00:24:52;;;;;;;;;;;8.80;67.60;;;;;;2583554;23;19920;-72
2021/01/05 00:25:54;;;;;;;;;;;8.90;67.00;;;;;;2583632;23;19926;-72
2021/01/05 00:26:55;;;;;;;;;;;8.90;65.30;;;;;;2583975;23;19920;-71
2021/01/05 00:27:57;;;;;;;;;;;8.80;64.90;;;;;;2571068;23;19927;-70
2021/01/05 00:28:59;;;;;;;;;;;8.80;65.80;;;;;;2571820;23;19920;-73
2021/01/05 00:30:02;;;;;;;;;;;8.80;66.80;;;;;;2585097;23;19935;-72
2021/01/05 00:31:04;;;;;;;;;;;8.90;66.70;;;;;;2585269;23;20320;-71
2021/01/05 00:32:06;;;;;;;;;;;9.10;65.50;;;;;;2585123;23;20449;-74
2021/01/05 00:33:08;;;;;;;;;;;9.00;64.80;;;;;;2585116;23;19950;-72
2021/01/05 00:34:09;;;;;;;;;;;9.00;64.30;;;;;;2584964;23;19919;-71
2021/01/05 00:35:11;;;;;;;;;;;9.00;64.40;;;;;;2585403;23;19923;-73
2021/01/05 00:36:13;;;;;;;;;;;8.80;64.10;;;;;;2585155;23;20261;-71
2021/01/05 00:37:15;;;;;;;;;;;8.60;65.10;;;;;;2584672;23;19930;-70
2021/01/05 00:38:16;;;;;;;;;;;8.40;66.40;;;;;;2584600;23;20337;-72
2021/01/05 00:39:18;;;;;;;;;;;8.40;66.20;;;;;;2584423;23;20256;-71
2021/01/05 00:40:20;;;;;;;;;;;8.30;66.90;;;;;;2584238;23;19931;-71
2021/01/05 00:41:23;;;;;;;;;;;8.20;66.90;;;;;;2584506;23;19920;-74
2021/01/05 00:42:24;;;;;;;;;;;8.40;68.10;;;;;;2584668;23;20156;-74
2021/01/05 00:43:27;;;;;;;;;;;8.50;68.80;;;;;;2584114;23;19944;-71
2021/01/05 00:44:28;;;;;;;;;;;8.40;66.20;;;;;;2570872;23;19971;-71
2021/01/05 00:45:31;;;;;;;;;;;8.30;66.90;;;;;;2570863;23;20432;-71
2021/01/05 00:46:32;;;;;;;;;;;8.30;66.60;;;;;;2583793;23;20261;-70
2021/01/05 00:47:34;;;;;;;;;;;8.20;66.30;;;;;;2583544;23;19920;-71
2021/01/05 00:48:35;;;;;;;;;;;8.20;68.10;;;;;;2570140;23;19920;-70
2021/01/05 00:49:36;;;;;;;;;;;8.30;68.10;;;;;;2571446;23;19926;-71
2021/01/05 00:50:38;;;;;;;;;;;8.20;66.40;;;;;;2585143;23;19920;-72
2021/01/05 00:51:39;;;;;;;;;;;8.10;67.60;;;;;;2585326;23;19942;-72
2021/01/05 00:52:41;;;;;;;;;;;8.30;67.50;;;;;;2585050;23;19924;-71
2021/01/05 00:53:42;;;;;;;;;;;8.40;68.20;;;;;;2585260;23;20313;-71
2021/01/05 00:54:43;;;;;;;;;;;8.50;69.30;;;;;;2585546;23;19919;-70
2021/01/05 00:55:45;;;;;;;;;;;8.50;66.20;;;;;;2585181;23;19920;-71
2021/01/05 00:57:01;;;;;;;;;;;8.60;67.60;;;;;;2583841;23;20059;-71
2021/01/05 00:58:02;;;;;;;;;;;8.80;66.10;;;;;;2585568;23;19927;-74
2021/01/05 00:59:04;;;;;;;;;;;8.70;65.20;;;;;;2584346;23;20443;-70
2021/01/05 01:00:07;;;;;;;;;;;8.70;65.70;;;;;;2584297;23;19919;-70
2021/01/05 01:01:08;;;;;;;;;;;8.50;65.50;;;;;;2585993;23;20340;-73
2021/01/05 01:02:11;;;;;;;;;;;8.50;67.00;;;;;;2583880;23;19962;-70
2021/01/05 01:03:13;;;;;;;;;;;8.50;66.50;;;;;;2583727;23;19954;-69
2021/01/05 01:04:14;;;;;;;;;;;8.40;65.30;;;;;;2583787;23;19920;-71
2021/01/05 01:05:15;;;;;;;;;;;8.40;66.40;;;;;;2583548;23;20182;-71
2021/01/05 01:06:17;;;;;;;;;;;8.60;68.60;;;;;;2583706;23;19947;-71
2021/01/05 01:07:18;;;;;;;;;;;8.60;65.60;;;;;;2583552;23;19982;-70
2021/01/05 01:08:20;;;;;;;;;;;8.50;65.70;;;;;;2583461;23;19920;-71
2021/01/05 01:09:22;;;;;;;;;;;8.60;67.30;;;;;;2583678;23;19926;-71
2021/01/05 01:10:23;;;;;;;;;;;8.40;67.00;;;;;;2583912;23;19920;-72
2021/01/05 01:11:24;;;;;;;;;;;8.50;67.30;;;;;;2583915;23;19947;-70
2021/01/05 01:12:27;;;;;;;;;;;8.50;65.80;;;;;;2583703;23;19972;-69
2021/01/05 01:13:28;;;;;;;;;;;8.30;65.30;;;;;;2583723;23;19926;-71
2021/01/05 01:14:30;;;;;;;;;;;8.40;66.60;;;;;;2583851;23;19920;-70
2021/01/05 01:15:32;;;;;;;;;;;8.40;67.90;;;;;;2583922;23;19943;-71
2021/01/05 01:16:33;;;;;;;;;;;8.60;66.60;;;;;;2583876;23;19946;-71
2021/01/05 01:17:34;;;;;;;;;;;8.70;67.80;;;;;;2583844;23;19931;-73
2021/01/05 01:18:36;;;;;;;;;;;8.80;64.50;;;;;;2570553;23;20365;-71
2021/01/05 01:19:37;;;;;;;;;;;8.70;66.40;;;;;;2570659;23;19947;-73
2021/01/05 01:20:38;;;;;;;;;;;8.80;65.50;;;;;;2583755;23;19924;-71
2021/01/05 01:21:43;;;;;;;;;;;8.90;65.10;;;;;;2584116;23;19923;-70
2021/01/05 01:22:44;;;;;;;;;;;8.60;65.40;;;;;;2584398;23;19926;-70
2021/01/05 01:23:46;;;;;;;;;;;8.50;64.70;;;;;;2584375;23;19919;-71
2021/01/05 01:24:48;;;;;;;;;;;8.30;65.60;;;;;;2583993;23;19920;-72
2021/01/05 01:25:52;;;;;;;;;;;8.30;66.90;;;;;;2584185;23;19965;-71
2021/01/05 01:26:54;;;;;;;;;;;8.30;66.00;;;;;;2584006;23;20244;-71
2021/01/05 01:27:56;;;;;;;;;;;8.10;66.10;;;;;;2583808;23;19924;-72
2021/01/05 01:28:57;;;;;;;;;;;8.10;66.90;;;;;;2583780;23;19924;-70
2021/01/05 01:29:59;;;;;;;;;;;8.10;66.90;;;;;;2583818;23;19919;-71
2021/01/05 01:31:01;;;;;;;;;;;8.20;67.30;;;;;;2583941;23;19946;-72
2021/01/05 01:32:03;;;;;;;;;;;8.40;68.50;;;;;;2583867;23;19923;-71
2021/01/05 01:33:05;;;;;;;;;;;8.60;68.70;;;;;;2584357;23;19927;-70
2021/01/05 01:34:06;;;;;;;;;;;8.80;65.70;;;;;;2584386;23;19926;-72
2021/01/05 01:35:08;;;;;;;;;;;8.70;65.30;;;;;;2584687;23;19946;-73
2021/01/05 01:36:09;;;;;;;;;;;8.70;65.00;;;;;;2584684;23;20256;-72
2021/01/05 01:37:12;;;;;;;;;;;8.90;65.90;;;;;;2586697;23;19958;-74
2021/01/05 01:38:13;;;;;;;;;;;8.80;65.70;;;;;;2587013;23;19920;-72
2021/01/05 01:39:15;;;;;;;;;;;8.80;65.40;;;;;;2587410;23;19927;-72
2021/01/05 01:40:19;;;;;;;;;;;8.90;66.60;;;;;;2587217;23;19920;-72
2021/01/05 01:41:21;;;;;;;;;;;8.90;65.40;;;;;;2586818;23;19943;-71
2021/01/05 01:42:22;;;;;;;;;;;9.10;66.10;;;;;;2586953;23;19920;-71
2021/01/05 01:43:25;;;;;;;;;;;9.10;63.90;;;;;;2587298;23;19919;-71
2021/01/05 01:44:26;;;;;;;;;;;9.00;64.00;;;;;;2586802;23;19926;-70
2021/01/05 01:45:28;;;;;;;;;;;9.00;63.30;;;;;;2587129;23;19920;-77
2021/01/05 01:46:32;;;;;;;;;;;8.90;65.70;;;;;;2586728;23;20238;-71
2021/01/05 01:47:35;;;;;;;;;;;9.10;66.30;;;;;;2587218;23;19920;-70
2021/01/05 01:48:36;;;;;;;;;;;9.30;66.00;;;;;;2586848;23;19920;-69
2021/01/05 01:49:38;;;;;;;;;;;9.40;65.20;;;;;;2586920;23;20011;-73
2021/01/05 01:50:39;;;;;;;;;;;9.30;61.60;;;;;;2586857;23;19919;-71
2021/01/05 01:51:42;;;;;;;;;;;9.20;62.80;;;;;;2586693;23;19931;-71
2021/01/05 01:53:17;;;;;;;;;;;9.20;62.80;;;;;;2586444;23;19920;-73
2021/01/05 01:54:34;;;;;;;;;;;9.30;64.90;;;;;;2535812;23;19921;-70
2021/01/05 01:55:37;;;;;;;;;;;9.20;63.40;;;;;;2535675;23;20093;-73
2021/01/05 01:56:50;;;;;;;;;;;9.30;64.00;;;;;;2535422;23;19944;-71
2021/01/05 01:58:03;;;;;;;;;;;9.40;63.90;;;;;;2523822;23;19922;-71
2021/01/05 01:59:11;;;;;;;;;;;9.40;63.90;;;;;;2525905;23;19929;-71
2021/01/05 02:00:27;;;;;;;;;;;9.60;63.30;;;;;;2568125;23;19947;-71
2021/01/05 02:01:44;;;;;;;;;;;9.60;63.30;;;;;;2581490;23;19943;-71
2021/01/05 02:03:05;;;;;;;;;;;9.70;61.90;;;;;;2586871;23;19919;-74
2021/01/05 02:04:19;;;;;;;;;;;9.80;61.50;;;;;;2586542;23;19950;-70
2021/01/05 02:05:24;;;;;;;;;;;9.80;61.10;;;;;;2585889;23;19919;-71
2021/01/05 02:06:30;;;;;;;;;;;9.70;60.50;;;;;;2585957;23;20337;-70
2021/01/05 02:07:55;;;;;;;;;;;9.70;62.80;;;;;;2585648;23;19920;-74
2021/01/05 02:09:06;;;;;;;;;;;9.70;62.30;;;;;;2555153;23;19927;-70
2021/01/05 02:10:15;;;;;;;;;;;9.80;61.00;;;;;;2585730;23;19920;-73
2021/01/05 02:11:32;;;;;;;;;;;9.50;60.70;;;;;;2586055;23;19919;-73
2021/01/05 02:12:36;;;;;;;;;;;9.70;63.40;;;;;;2585723;23;19920;-72
2021/01/05 02:13:45;;;;;;;;;;;9.80;63.00;;;;;;2586988;23;19919;-71
2021/01/05 02:14:58;;;;;;;;;;;9.80;60.50;;;;;;2587399;23;20441;-72
2021/01/05 02:16:11;;;;;;;;;;;9.80;60.90;;;;;;2573494;23;19920;-72
2021/01/05 02:17:26;;;;;;;;;;;9.90;60.50;;;;;;2576048;23;19920;-71
2021/01/05 02:18:33;;;;;;;;;;;9.70;60.00;;;;;;2586754;23;19927;-78
2021/01/05 02:19:36;;;;;;;;;;;9.70;60.80;;;;;;2585737;23;19919;-71
2021/01/05 02:20:40;;;;;;;;;;;9.50;60.10;;;;;;2583064;23;19931;-74
2021/01/05 02:21:46;;;;;;;;;;;9.50;61.60;;;;;;2583249;23;19927;-71
2021/01/05 02:22:53;;;;;;;;;;;9.50;63.60;;;;;;2583325;23;19927;-71
2021/01/05 02:24:06;;;;;;;;;;;9.60;62.60;;;;;;2583385;23;19919;-71
2021/01/05 02:25:11;;;;;;;;;;;9.80;62.40;;;;;;2583421;23;19920;-68
2021/01/05 02:26:15;;;;;;;;;;;9.80;61.50;;;;;;2583479;23;19926;-71
2021/01/05 02:27:17;;;;;;;;;;;9.60;60.30;;;;;;2583370;23;19947;-71
2021/01/05 02:28:21;;;;;;;;;;;9.80;61.90;;;;;;2583226;23;20237;-71
2021/01/05 02:29:23;;;;;;;;;;;9.70;61.10;;;;;;2583235;23;19920;-72
2021/01/05 02:30:26;;;;;;;;;;;9.60;60.90;;;;;;2583139;23;19943;-71
2021/01/05 02:31:36;;;;;;;;;;;9.40;60.40;;;;;;2583241;23;20298;-72
2021/01/05 02:32:40;;;;;;;;;;;9.50;62.20;;;;;;2583260;23;19919;-71
2021/01/05 02:33:45;;;;;;;;;;;9.60;63.40;;;;;;2583309;23;19986;-71
2021/01/05 02:34:56;;;;;;;;;;;9.70;61.10;;;;;;2583291;23;19971;-71
2021/01/05 02:36:09;;;;;;;;;;;9.60;61.20;;;;;;2583125;23;19920;-70
2021/01/05 02:37:15;;;;;;;;;;;9.70;61.40;;;;;;2583084;23;19935;-70
2021/01/05 02:38:28;;;;;;;;;;;9.40;60.50;;;;;;2583202;23;19920;-71
2021/01/05 02:39:41;;;;;;;;;;;9.30;60.70;;;;;;2583423;23;19942;-71
2021/01/05 02:40:52;;;;;;;;;;;9.10;62.50;;;;;;2583097;23;19920;-71
2021/01/05 02:42:03;;;;;;;;;;;9.10;62.40;;;;;;2583267;23;19920;-70
2021/01/05 02:43:18;;;;;;;;;;;9.00;63.30;;;;;;2583204;23;19930;-71
2021/01/05 02:44:23;;;;;;;;;;;8.90;64.70;;;;;;2583242;23;19920;-71
2021/01/05 02:45:26;;;;;;;;;;;9.20;65.40;;;;;;2583285;23;20267;-69
2021/01/05 02:46:38;;;;;;;;;;;9.40;64.70;;;;;;2583168;23;19919;-70
2021/01/05 02:47:57;;;;;;;;;;;9.50;62.50;;;;;;2583335;23;19924;-71
2021/01/05 02:49:06;;;;;;;;;;;9.50;61.50;;;;;;2583364;23;19919;-70
2021/01/05 02:50:12;;;;;;;;;;;9.30;63.70;;;;;;2583281;23;19926;-71
2021/01/05 02:51:22;;;;;;;;;;;9.40;64.00;;;;;;2583121;23;19919;-72
2021/01/05 02:52:41;;;;;;;;;;;9.40;61.80;;;;;;2583397;23;19935;-71
2021/01/05 02:54:00;;;;;;;;;;;9.30;61.90;;;;;;2569690;23;20325;-72
2021/01/05 02:55:23;;;;;;;;;;;9.30;64.10;;;;;;2560873;23;19920;-70
2021/01/05 02:56:42;;;;;;;;;;;9.20;62.00;;;;;;2562008;23;19920;-71
2021/01/05 02:57:47;;;;;;;;;;;9.10;62.60;;;;;;2569109;23;19920;-71
2021/01/05 02:59:10;;;;;;;;;;;9.20;63.50;;;;;;2570558;23;19991;-70
2021/01/05 03:00:29;;;;;;;;;;;9.10;63.00;;;;;;2570746;23;19927;-71
2021/01/05 03:01:48;;;;;;;;;;;9.20;64.90;;;;;;2570360;23;19939;-70
2021/01/05 03:03:04;;;;;;;;;;;9.20;63.60;;;;;;2570204;23;20364;-71
2021/01/05 03:04:06;;;;;;;;;;;9.20;62.90;;;;;;2570612;23;19920;-69
2021/01/05 03:05:08;;;;;;;;;;;9.20;62.80;;;;;;2570543;23;19958;-71
2021/01/05 03:06:25;;;;;;;;;;;9.00;63.20;;;;;;2570656;23;19920;-71
2021/01/05 03:07:28;;;;;;;;;;;9.00;64.30;;;;;;2570922;23;19920;-70
2021/01/05 03:08:30;;;;;;;;;;;9.20;63.70;;;;;;2570478;23;19920;-71
2021/01/05 03:09:52;;;;;;;;;;;9.20;63.40;;;;;;2570650;23;19954;-70
2021/01/05 03:10:56;;;;;;;;;;;9.10;63.90;;;;;;2570461;23;19948;-70
2021/01/05 03:12:05;;;;;;;;;;;9.20;63.50;;;;;;2570661;23;19927;-72
2021/01/05 03:13:31;;;;;;;;;;;9.00;62.90;;;;;;2570515;23;20245;-71
2021/01/05 03:14:36;;;;;;;;;;;9.00;62.90;;;;;;2540031;23;19924;-70
2021/01/05 03:15:41;;;;;;;;;;;8.80;64.00;;;;;;2570471;23;19920;-71
2021/01/05 03:16:46;;;;;;;;;;;8.80;63.60;;;;;;2569916;23;19920;-71
2021/01/05 03:17:49;;;;;;;;;;;8.70;64.50;;;;;;2569890;23;19951;-70
2021/01/05 03:18:57;;;;;;;;;;;8.70;65.70;;;;;;2570466;23;19927;-70
2021/01/05 03:20:04;;;;;;;;;;;8.60;64.70;;;;;;2570238;23;19920;-70
2021/01/05 03:21:08;;;;;;;;;;;8.60;65.50;;;;;;2570596;23;19959;-70
2021/01/05 03:22:11;;;;;;;;;;;8.70;65.70;;;;;;2570514;23;19920;-71
2021/01/05 03:23:13;;;;;;;;;;;8.50;65.70;;;;;;2570418;23;19924;-71
2021/01/05 03:24:15;;;;;;;;;;;8.40;65.60;;;;;;2570781;23;19920;-71
2021/01/05 03:25:17;;;;;;;;;;;8.30;66.30;;;;;;2570526;23;19955;-70
2021/01/05 03:26:21;;;;;;;;;;;8.20;67.20;;;;;;2570682;23;19920;-71
2021/01/05 03:27:23;;;;;;;;;;;8.10;66.80;;;;;;2570801;23;19950;-74
2021/01/05 03:28:26;;;;;;;;;;;8.10;66.90;;;;;;2570891;23;19939;-71
2021/01/05 03:29:28;;;;;;;;;;;7.90;67.60;;;;;;2570841;23;19927;-71
2021/01/05 03:30:32;;;;;;;;;;;8.00;68.30;;;;;;2570937;23;19920;-70
2021/01/05 03:31:36;;;;;;;;;;;8.00;67.60;;;;;;2570821;23;19920;-71
2021/01/05 03:32:38;;;;;;;;;;;8.00;67.90;;;;;;2570803;23;19927;-71
2021/01/05 03:33:39;;;;;;;;;;;8.10;68.20;;;;;;2571033;23;19920;-73
2021/01/05 03:34:41;;;;;;;;;;;8.10;68.10;;;;;;2573074;23;19926;-71
2021/01/05 03:35:42;;;;;;;;;;;8.10;67.30;;;;;;2573764;23;19927;-71
2021/01/05 03:36:44;;;;;;;;;;;8.00;67.70;;;;;;2573381;23;19926;-72
2021/01/05 03:37:45;;;;;;;;;;;7.90;67.70;;;;;;2573838;23;19947;-71
2021/01/05 03:38:47;;;;;;;;;;;7.90;69.40;;;;;;2573440;23;19920;-72
2021/01/05 03:39:48;;;;;;;;;;;7.90;68.90;;;;;;2571571;23;19920;-71
2021/01/05 03:40:49;;;;;;;;;;;7.90;68.50;;;;;;2572679;23;20226;-71
2021/01/05 03:41:51;;;;;;;;;;;8.00;69.50;;;;;;2572992;23;20269;-71
2021/01/05 03:42:52;;;;;;;;;;;7.90;69.10;;;;;;2572736;23;19920;-71
2021/01/05 03:43:54;;;;;;;;;;;8.00;69.20;;;;;;2570779;23;20420;-71
2021/01/05 03:44:55;;;;;;;;;;;8.00;69.20;;;;;;2569811;23;20304;-70
2021/01/05 03:45:58;;;;;;;;;;;7.90;68.40;;;;;;2570607;23;19920;-70
2021/01/05 03:46:59;;;;;;;;;;;8.00;69.20;;;;;;2570566;23;19920;-71
2021/01/05 03:48:01;;;;;;;;;;;8.00;69.00;;;;;;2569742;23;19923;-70
2021/01/05 03:49:02;;;;;;;;;;;7.90;68.90;;;;;;2569774;23;20459;-70
2021/01/05 03:50:04;;;;;;;;;;;7.80;70.20;;;;;;2569805;23;19920;-71
2021/01/05 03:51:06;;;;;;;;;;;8.00;69.80;;;;;;2569674;23;19927;-72
2021/01/05 03:52:07;;;;;;;;;;;7.90;69.50;;;;;;2569878;23;19920;-71
2021/01/05 03:53:09;;;;;;;;;;;7.80;68.90;;;;;;2570032;23;19920;-71
2021/01/05 03:54:10;;;;;;;;;;;7.70;69.50;;;;;;2570565;23;19943;-71
2021/01/05 03:55:13;;;;;;;;;;;7.60;69.80;;;;;;2570867;23;19930;-71
2021/01/05 03:56:14;;;;;;;;;;;7.50;70.70;;;;;;2575122;23;19966;-71
2021/01/05 03:57:16;;;;;;;;;;;7.50;71.80;;;;;;2582785;23;19920;-71
2021/01/05 03:58:17;;;;;;;;;;;7.80;72.40;;;;;;2582849;23;19920;-71
2021/01/05 03:59:18;;;;;;;;;;;7.80;71.70;;;;;;2583156;23;19920;-70
2021/01/05 04:00:25;;;;;;;;;;;7.70;70.70;;;;;;2582739;23;19923;-70
2021/01/05 04:01:28;;;;;;;;;;;7.60;71.50;;;;;;2582721;23;20397;-71
2021/01/05 04:02:30;;;;;;;;;;;7.60;71.90;;;;;;2582713;23;19919;-71
2021/01/05 04:03:31;;;;;;;;;;;7.60;71.90;;;;;;2582995;23;19955;-70
2021/01/05 04:04:33;;;;;;;;;;;7.50;71.70;;;;;;2582967;23;20282;-71
2021/01/05 04:05:34;;;;;;;;;;;7.60;72.90;;;;;;2569670;23;19951;-71
2021/01/05 04:06:36;;;;;;;;;;;7.60;71.90;;;;;;2569863;23;19920;-71
2021/01/05 04:07:37;;;;;;;;;;;7.40;72.70;;;;;;2582827;23;19946;-71
2021/01/05 04:08:38;;;;;;;;;;;7.50;73.70;;;;;;2582876;23;19919;-70
2021/01/05 04:09:40;;;;;;;;;;;7.40;73.20;;;;;;2582705;23;19923;-71
2021/01/05 04:10:41;;;;;;;;;;;7.40;73.30;;;;;;2582765;23;20261;-71
2021/01/05 04:11:42;;;;;;;;;;;7.40;73.70;;;;;;2583056;23;20206;-71
2021/01/05 04:12:44;;;;;;;;;;;7.50;73.80;;;;;;2582742;23;19926;-71
2021/01/05 04:13:45;;;;;;;;;;;7.40;73.80;;;;;;2582970;23;19939;-71
2021/01/05 04:14:47;;;;;;;;;;;7.60;73.80;;;;;;2582673;23;20355;-71
2021/01/05 04:15:48;;;;;;;;;;;7.60;73.00;;;;;;2582858;23;19919;-70
2021/01/05 04:16:50;;;;;;;;;;;7.70;73.10;;;;;;2582716;23;19919;-72
2021/01/05 04:17:52;;;;;;;;;;;7.80;73.20;;;;;;2582971;23;19923;-70
2021/01/05 04:18:54;;;;;;;;;;;7.70;72.30;;;;;;2582776;23;20167;-71
2021/01/05 04:19:55;;;;;;;;;;;7.70;72.10;;;;;;2583025;23;19939;-71
2021/01/05 04:20:57;;;;;;;;;;;7.80;72.10;;;;;;2582609;23;19950;-71
2021/01/05 04:21:59;;;;;;;;;;;7.70;72.40;;;;;;2582829;23;19920;-71
2021/01/05 04:23:00;;;;;;;;;;;7.60;72.80;;;;;;2582630;23;20222;-71
2021/01/05 04:24:02;;;;;;;;;;;7.60;73.10;;;;;;2582779;23;19923;-73
2021/01/05 04:25:04;;;;;;;;;;;7.60;74.20;;;;;;2582666;23;19930;-71
2021/01/05 04:26:06;;;;;;;;;;;7.70;73.50;;;;;;2582709;23;19920;-70
2021/01/05 04:27:08;;;;;;;;;;;7.60;73.20;;;;;;2582881;23;19958;-71
2021/01/05 04:28:09;;;;;;;;;;;7.70;73.80;;;;;;2582836;23;19920;-70
2021/01/05 04:29:10;;;;;;;;;;;7.70;73.40;;;;;;2582767;23;19999;-71
2021/01/05 04:30:17;;;;;;;;;;;7.60;73.50;;;;;;2582898;23;20070;-69
2021/01/05 04:31:18;;;;;;;;;;;7.80;74.90;;;;;;2582542;23;19920;-73
2021/01/05 04:32:20;;;;;;;;;;;7.80;72.60;;;;;;2582649;23;20501;-71
2021/01/05 04:33:22;;;;;;;;;;;7.70;73.00;;;;;;2582782;23;19930;-71
2021/01/05 04:34:23;;;;;;;;;;;7.80;73.90;;;;;;2582757;23;19919;-71
2021/01/05 04:35:25;;;;;;;;;;;7.80;72.80;;;;;;2582727;23;19919;-69
2021/01/05 04:36:27;;;;;;;;;;;7.90;73.30;;;;;;2582945;23;19920;-69
2021/01/05 04:37:28;;;;;;;;;;;7.70;72.30;;;;;;2582663;23;19930;-71
2021/01/05 04:38:29;;;;;;;;;;;7.60;73.50;;;;;;2582777;23;19927;-71
2021/01/05 04:39:31;;;;;;;;;;;7.50;74.30;;;;;;2582514;23;19944;-71
2021/01/05 04:40:33;;;;;;;;;;;7.50;74.10;;;;;;2582766;23;19924;-71
2021/01/05 04:41:37;;;;;;;;;;;7.50;74.30;;;;;;2582697;23;20240;-70
2021/01/05 04:42:39;;;;;;;;;;;7.60;75.20;;;;;;2582615;23;19927;-71
2021/01/05 04:43:49;;;;;;;;;;;7.80;74.30;;;;;;2582703;23;20040;-71
2021/01/05 04:44:55;;;;;;;;;;;7.60;73.30;;;;;;2582890;23;20079;-70
2021/01/05 04:46:14;;;;;;;;;;;7.50;74.40;;;;;;2582543;23;20365;-71
2021/01/05 04:47:21;;;;;;;;;;;7.60;75.50;;;;;;2562316;23;19927;-71
2021/01/05 04:48:30;;;;;;;;;;;7.70;75.30;;;;;;2582783;23;19920;-71
2021/01/05 04:49:47;;;;;;;;;;;7.90;74.50;;;;;;2582758;23;19934;-70
2021/01/05 04:50:51;;;;;;;;;;;7.90;73.00;;;;;;2582732;23;19920;-69
2021/01/05 04:51:56;;;;;;;;;;;7.90;73.50;;;;;;2582715;23;19919;-73
2021/01/05 04:53:01;;;;;;;;;;;7.80;72.90;;;;;;2582713;23;19920;-71
2021/01/05 04:54:04;;;;;;;;;;;7.70;73.80;;;;;;2582608;23;19920;-71
2021/01/05 04:55:14;;;;;;;;;;;7.80;73.80;;;;;;2582653;23;19920;-71
2021/01/05 04:56:16;;;;;;;;;;;7.70;74.20;;;;;;2582474;23;20321;-69
2021/01/05 04:57:21;;;;;;;;;;;7.60;73.60;;;;;;2582777;23;19950;-71
2021/01/05 04:58:26;;;;;;;;;;;7.70;74.20;;;;;;2582618;23;20357;-70
2021/01/05 04:59:29;;;;;;;;;;;7.70;73.80;;;;;;2582580;23;19928;-69
2021/01/05 05:00:31;;;;;;;;;;;7.80;75.10;;;;;;2582529;23;20230;-71
2021/01/05 05:01:33;;;;;;;;;;;7.80;73.80;;;;;;2582702;23;19920;-71
2021/01/05 05:02:41;;;;;;;;;;;7.70;74.10;;;;;;2582971;23;19951;-71
2021/01/05 05:03:52;;;;;;;;;;;7.90;73.80;;;;;;2582924;23;19920;-70
2021/01/05 05:04:56;;;;;;;;;;;7.90;73.30;;;;;;2582836;23;19919;-71
2021/01/05 05:06:05;;;;;;;;;;;7.90;73.70;;;;;;2582779;23;20298;-71
2021/01/05 05:07:16;;;;;;;;;;;8.10;73.50;;;;;;2569424;23;20384;-70
2021/01/05 05:08:24;;;;;;;;;;;8.10;72.20;;;;;;2571779;23;19927;-70
2021/01/05 05:09:28;;;;;;;;;;;8.20;71.60;;;;;;2582505;23;19931;-71
2021/01/05 05:10:33;;;;;;;;;;;8.20;71.50;;;;;;2582704;23;19919;-70
2021/01/05 05:11:40;;;;;;;;;;;8.20;72.60;;;;;;2582690;23;19926;-71
2021/01/05 05:12:46;;;;;;;;;;;8.30;71.50;;;;;;2582663;23;20102;-71
2021/01/05 05:13:50;;;;;;;;;;;8.30;72.00;;;;;;2582691;23;20322;-70
2021/01/05 05:14:56;;;;;;;;;;;8.40;71.40;;;;;;2582701;23;19931;-71
2021/01/05 05:16:06;;;;;;;;;;;8.50;70.90;;;;;;2582727;23;19920;-71
2021/01/05 05:17:39;;;;;;;;;;;8.50;72.00;;;;;;2582873;23;19920;-71
2021/01/05 05:18:52;;;;;;;;;;;8.50;69.70;;;;;;2531796;23;20254;-71
2021/01/05 05:20:02;;;;;;;;;;;8.30;69.80;;;;;;2531909;23;19928;-71
2021/01/05 05:21:12;;;;;;;;;;;8.50;71.20;;;;;;2551652;23;19931;-71
2021/01/05 05:22:15;;;;;;;;;;;8.60;69.70;;;;;;2582550;23;19927;-71
2021/01/05 05:23:28;;;;;;;;;;;8.40;69.40;;;;;;2582464;23;20333;-71
2021/01/05 05:24:36;;;;;;;;;;;8.40;69.00;;;;;;2582693;23;19920;-70
2021/01/05 05:25:41;;;;;;;;;;;8.50;69.70;;;;;;2582376;23;19927;-71
2021/01/05 05:26:47;;;;;;;;;;;8.30;69.20;;;;;;2582594;23;19926;-71
2021/01/05 05:27:51;;;;;;;;;;;8.20;69.90;;;;;;2582600;23;19926;-69
2021/01/05 05:28:55;;;;;;;;;;;8.00;70.70;;;;;;2582852;23;19930;-70
2021/01/05 05:29:58;;;;;;;;;;;8.20;72.70;;;;;;2582661;23;19920;-71
2021/01/05 05:31:01;;;;;;;;;;;8.20;71.20;;;;;;2582582;23;20215;-71
2021/01/05 05:32:05;;;;;;;;;;;8.10;71.60;;;;;;2582592;23;19919;-70
2021/01/05 05:33:14;;;;;;;;;;;8.00;71.40;;;;;;2582697;23;19942;-71
2021/01/05 05:34:21;;;;;;;;;;;8.00;71.60;;;;;;2582657;23;19919;-70
2021/01/05 05:35:55;;;;;;;;;;;8.10;71.80;;;;;;2582517;23;19920;-71
2021/01/05 05:37:12;;;;;;;;;;;8.20;72.30;;;;;;2531773;23;19928;-70
2021/01/05 05:38:24;;;;;;;;;;;8.20;70.50;;;;;;2531801;23;19928;-71
2021/01/05 05:39:35;;;;;;;;;;;8.10;70.40;;;;;;2531935;23;19928;-71
2021/01/05 05:40:44;;;;;;;;;;;8.10;71.30;;;;;;2531848;23;19921;-71
2021/01/05 05:41:50;;;;;;;;;;;8.00;71.20;;;;;;2531705;23;19928;-71
2021/01/05 05:43:04;;;;;;;;;;;8.00;71.30;;;;;;2565134;23;19919;-70
2021/01/05 05:44:15;;;;;;;;;;;8.00;71.40;;;;;;2583635;23;19924;-70
2021/01/05 05:45:20;;;;;;;;;;;8.10;71.20;;;;;;2583567;23;19926;-71
2021/01/05 05:46:24;;;;;;;;;;;8.10;71.40;;;;;;2583438;23;19919;-71
2021/01/05 05:47:27;;;;;;;;;;;8.10;71.00;;;;;;2570330;23;19920;-71
2021/01/05 05:48:36;;;;;;;;;;;8.20;71.10;;;;;;2572731;23;19920;-71
2021/01/05 05:49:42;;;;;;;;;;;7.90;71.00;;;;;;2585476;23;19920;-73
2021/01/05 05:50:49;;;;;;;;;;;7.70;72.80;;;;;;2585163;23;19927;-71
2021/01/05 05:51:52;;;;;;;;;;;7.50;73.20;;;;;;2585305;23;19927;-70
2021/01/05 05:52:58;;;;;;;;;;;7.50;74.60;;;;;;2585199;23;19930;-71
2021/01/05 05:54:01;;;;;;;;;;;7.40;74.30;;;;;;2585176;23;19920;-74
2021/01/05 05:55:17;;;;;;;;;;;7.40;76.00;;;;;;2584568;23;20463;-71
2021/01/05 05:56:22;;;;;;;;;;;7.50;75.60;;;;;;2584550;23;19925;-71
2021/01/05 05:57:31;;;;;;;;;;;7.40;75.60;;;;;;2585011;23;19919;-70
2021/01/05 05:58:34;;;;;;;;;;;7.60;75.70;;;;;;2585061;23;19920;-73
2021/01/05 05:59:38;;;;;;;;;;;7.30;75.70;;;;;;2584995;23;19927;-71
2021/01/05 06:00:40;;;;;;;;;;;7.40;76.70;;;;;;2571578;23;20376;-71
2021/01/05 06:01:42;;;;;;;;;;;7.30;76.10;;;;;;2571689;23;19924;-71
2021/01/05 06:02:43;;;;;;;;;;;7.40;77.00;;;;;;2585205;23;19919;-71
2021/01/05 06:03:45;;;;;;;;;;;7.40;76.20;;;;;;2584809;23;20332;-71
2021/01/05 06:04:47;;;;;;;;;;;7.60;77.30;;;;;;2584494;23;19920;-71
2021/01/05 06:05:48;;;;;;;;;;;7.60;75.50;;;;;;2583648;23;19927;-71
2021/01/05 06:06:50;;;;;;;;;;;7.60;75.50;;;;;;2583363;23;20345;-71
2021/01/05 06:07:51;;;;;;;;;;;7.60;75.20;;;;;;2583486;23;19920;-71
2021/01/05 06:08:53;;;;;;;;;;;7.70;75.00;;;;;;2583567;23;20316;-70
2021/01/05 06:10:00;;;;;;;;;;;7.50;74.40;;;;;;2583406;23;19919;-71
2021/01/05 06:11:02;;;;;;;;;;;7.50;75.10;;;;;;2583280;23;19919;-71
2021/01/05 06:12:05;;;;;;;;;;;7.70;75.10;;;;;;2583394;23;19930;-70
2021/01/05 06:13:06;;;;;;;;;;;7.80;74.90;;;;;;2583791;23;19919;-72
2021/01/05 06:14:08;;;;;;;;;;;8.00;74.10;;;;;;2583811;23;19947;-71
2021/01/05 06:15:09;;;;;;;;;;;8.00;73.30;;;;;;2586537;23;19919;-71
2021/01/05 06:16:11;;;;;;;;;;;7.90;72.80;;;;;;2586569;23;19920;-72
2021/01/05 06:17:12;;;;;;;;;;;8.00;72.80;;;;;;2586460;23;20324;-75
2021/01/05 06:18:14;;;;;;;;;;;7.90;73.20;;;;;;2586623;23;19920;-72
2021/01/05 06:19:16;;;;;;;;;;;7.90;73.60;;;;;;2586827;23;20431;-71
2021/01/05 06:20:18;;;;;;;;;;;7.90;73.70;;;;;;2586189;23;19926;-71
2021/01/05 06:21:19;;;;;;;;;;;7.90;73.20;;;;;;2585187;23;19920;-71
2021/01/05 06:22:20;;;;;;;;;;;8.00;74.60;;;;;;2583326;23;19919;-71
2021/01/05 06:23:22;;;;;;;;;;;8.00;72.40;;;;;;2583292;23;19920;-71